createdAt,value
2018-08-12T00:02:23.658Z,98971.13
2018-08-12T00:04:56.827Z,98972.04
2018-08-12T00:07:26.716Z,98970.28
2018-08-12T00:09:55.165Z,98971.20
2018-08-12T00:12:23.629Z,98970.93
2018-08-12T00:14:52.133Z,98969.52
2018-08-12T00:17:20.751Z,98970.52
2018-08-12T00:19:49.209Z,98965.27
2018-08-12T00:22:18.131Z,98961.48
2018-08-12T00:24:46.689Z,98963.47
2018-08-12T00:27:15.189Z,98953.47
2018-08-12T00:29:43.713Z,98951.30
2018-08-12T00:32:12.239Z,98952.61
2018-08-12T00:34:40.704Z,98948.45
2018-08-12T00:37:09.654Z,98945.19
2018-08-12T00:39:38.415Z,98946.70
2018-08-12T00:42:06.869Z,98944.56
2018-08-12T00:44:35.353Z,98937.29
2018-08-12T00:47:03.841Z,98940.90
2018-08-12T00:49:32.513Z,98944.79
2018-08-12T00:52:01.085Z,98944.23
2018-08-12T00:54:29.604Z,98940.29
2018-08-12T00:56:58.101Z,98938.02
2018-08-12T00:59:26.617Z,98938.11
2018-08-12T01:01:55.117Z,98937.52
2018-08-12T01:04:23.565Z,98936.63
2018-08-12T01:06:52.087Z,98935.70
2018-08-12T01:09:20.825Z,98930.80
2018-08-12T01:11:49.282Z,98931.25
2018-08-12T01:14:18.477Z,98929.32
2018-08-12T01:16:46.984Z,98926.80
2018-08-12T01:19:15.810Z,98930.41
2018-08-12T01:21:44.333Z,98933.99
2018-08-12T01:24:12.781Z,98928.69
2018-08-12T01:26:41.257Z,98935.08
2018-08-12T01:29:09.717Z,98933.94
2018-08-12T01:31:38.233Z,98931.50
2018-08-12T01:34:06.761Z,98927.69
2018-08-12T01:36:35.325Z,98919.73
2018-08-12T01:39:04.233Z,98914.23
2018-08-12T01:41:32.810Z,98912.25
2018-08-12T01:44:01.235Z,98914.09
2018-08-12T01:46:29.743Z,98909.63
2018-08-12T01:48:58.316Z,98910.67
2018-08-12T01:51:27.025Z,98907.73
2018-08-12T01:53:55.768Z,98903.48
2018-08-12T01:56:24.245Z,98905.50
2018-08-12T01:58:52.744Z,98905.16
2018-08-12T02:01:21.389Z,98908.36
2018-08-12T02:03:49.902Z,98904.86
2018-08-12T02:06:18.652Z,98905.99
2018-08-12T02:08:47.081Z,98897.88
2018-08-12T02:11:15.576Z,98891.69
2018-08-12T02:13:44.157Z,98891.69
2018-08-12T02:16:12.557Z,98886.31
2018-08-12T02:18:41.017Z,98884.70
2018-08-12T02:21:09.497Z,98883.20
2018-08-12T02:23:38.037Z,98887.02
2018-08-12T02:26:06.569Z,98878.08
2018-08-12T02:28:35.065Z,98868.74
2018-08-12T02:31:03.668Z,98869.09
2018-08-12T02:33:32.089Z,98870.50
2018-08-12T02:36:00.573Z,98878.56
2018-08-12T02:38:29.078Z,98869.09
2018-08-12T02:40:57.573Z,98860.38
2018-08-12T02:43:26.018Z,98860.28
2018-08-12T02:45:54.548Z,98854.34
2018-08-12T02:48:23.062Z,98851.45
2018-08-12T02:50:51.461Z,98847.04
2018-08-12T02:53:20.376Z,98850.01
2018-08-12T02:55:50.494Z,98840.55
2018-08-12T02:58:20.266Z,98841.67
2018-08-12T03:00:49.029Z,98840.89
2018-08-12T03:03:18.529Z,98835.83
2018-08-12T03:05:46.961Z,98844.73
2018-08-12T03:08:15.454Z,98836.89
2018-08-12T03:10:43.913Z,98835.33
2018-08-12T03:13:12.410Z,98830.23
2018-08-12T03:15:40.855Z,98827.02
2018-08-12T03:18:09.401Z,98819.09
2018-08-12T03:20:37.853Z,98820.59
2018-08-12T03:23:06.605Z,98820.15
2018-08-12T03:25:35.140Z,98819.23
2018-08-12T03:28:03.650Z,98823.66
2018-08-12T03:30:32.209Z,98819.64
2018-08-12T03:33:00.638Z,98813.05
2018-08-12T03:35:29.150Z,98817.13
2018-08-12T03:37:57.609Z,98813.16
2018-08-12T03:40:26.097Z,98812.89
2018-08-12T03:42:54.711Z,98812.98
2018-08-12T03:45:23.181Z,98808.23
2018-08-12T03:47:51.674Z,98809.76
2018-08-12T03:50:20.196Z,98804.94
2018-08-12T03:52:48.725Z,98806.41
2018-08-12T03:55:17.789Z,98806.91
2018-08-12T03:57:46.274Z,98799.48
2018-08-12T04:00:17.217Z,98802.16
2018-08-12T04:02:47.114Z,98805.84
2018-08-12T04:05:16.026Z,98807.05
2018-08-12T04:07:44.549Z,98803.22
2018-08-12T04:10:13.165Z,98804.61
2018-08-12T04:12:41.647Z,98802.81
2018-08-12T04:15:11.493Z,98805.94
2018-08-12T04:17:40.253Z,98807.91
2018-08-12T04:20:10.014Z,98799.80
2018-08-12T04:22:38.657Z,98804.10
2018-08-12T04:25:07.209Z,98797.23
2018-08-12T04:27:35.637Z,98795.66
2018-08-12T04:30:05.246Z,98795.55
2018-08-12T04:32:33.793Z,98791.19
2018-08-12T04:35:02.249Z,98787.63
2018-08-12T04:37:30.697Z,98784.82
2018-08-12T04:39:59.250Z,98790.14
2018-08-12T04:42:27.700Z,98787.83
2018-08-12T04:44:56.172Z,98790.69
2018-08-12T04:47:24.692Z,98788.13
2018-08-12T04:49:53.122Z,98791.80
2018-08-12T04:52:21.941Z,98795.21
2018-08-12T04:54:50.425Z,98796.28
2018-08-12T04:57:20.226Z,98799.03
2018-08-12T04:59:48.689Z,98798.29
2018-08-12T05:02:17.624Z,98796.80
2018-08-12T05:04:46.090Z,98800.30
2018-08-12T05:07:14.541Z,98798.77
2018-08-12T05:09:43.049Z,98793.12
2018-08-12T05:12:11.609Z,98791.01
2018-08-12T05:14:40.121Z,98790.83
2018-08-12T05:17:08.772Z,98791.05
2018-08-12T05:19:37.247Z,98790.17
2018-08-12T05:22:05.766Z,98788.48
2018-08-12T05:24:34.237Z,98787.88
2018-08-12T05:27:05.603Z,98788.16
2018-08-12T05:29:34.185Z,98785.98
2018-08-12T05:32:02.678Z,98783.73
2018-08-12T05:34:31.124Z,98785.80
2018-08-12T05:36:59.650Z,98776.88
2018-08-12T05:39:28.165Z,98776.38
2018-08-12T05:41:56.682Z,98765.48
2018-08-12T05:44:25.293Z,98762.62
2018-08-12T05:46:53.909Z,98766.14
2018-08-12T05:49:22.633Z,98768.31
2018-08-12T05:51:51.098Z,98764.77
2018-08-12T05:54:19.993Z,98767.19
2018-08-12T05:56:48.521Z,98769.58
2018-08-12T05:59:17.104Z,98775.71
2018-08-12T06:01:45.601Z,98777.33
2018-08-12T06:04:14.084Z,98775.25
2018-08-12T06:06:42.981Z,98772.96
2018-08-12T06:09:11.816Z,98772.63
2018-08-12T06:11:40.301Z,98766.50
2018-08-12T06:14:09.100Z,98766.45
2018-08-12T06:16:37.601Z,98756.61
2018-08-12T06:19:06.186Z,98762.17
2018-08-12T06:21:34.740Z,98764.02
2018-08-12T06:24:03.169Z,98766.94
2018-08-12T06:26:31.733Z,98763.09
2018-08-12T06:29:00.276Z,98762.30
2018-08-12T06:31:28.935Z,98763.55
2018-08-12T06:33:57.523Z,98763.77
2018-08-12T06:36:25.994Z,98759.84
2018-08-12T06:38:54.490Z,98761.13
2018-08-12T06:41:22.904Z,98760.73
2018-08-12T06:43:51.560Z,98764.69
2018-08-12T06:46:20.382Z,98761.39
2018-08-12T06:48:49.017Z,98755.38
2018-08-12T06:51:17.827Z,98748.49
2018-08-12T06:53:46.366Z,98752.45
2018-08-12T06:56:14.897Z,98750.33
2018-08-12T06:58:43.390Z,98753.61
2018-08-12T07:01:11.889Z,98747.10
2018-08-12T07:03:40.354Z,98737.86
2018-08-12T07:06:08.834Z,98736.70
2018-08-12T07:08:37.350Z,98739.09
2018-08-12T07:11:05.857Z,98740.67
2018-08-12T07:13:34.371Z,98742.37
2018-08-12T07:16:02.812Z,98739.00
2018-08-12T07:18:31.317Z,98741.23
2018-08-12T07:20:59.801Z,98739.08
2018-08-12T07:23:28.331Z,98729.94
2018-08-12T07:25:56.794Z,98736.19
2018-08-12T07:28:25.237Z,98730.77
2018-08-12T07:30:53.767Z,98727.02
2018-08-12T07:33:23.509Z,98720.91
2018-08-12T07:35:52.041Z,98727.14
2018-08-12T07:38:20.548Z,98724.75
2018-08-12T07:40:49.057Z,98721.01
2018-08-12T07:43:17.905Z,98714.71
2018-08-12T07:45:46.371Z,98715.83
2018-08-12T07:48:16.081Z,98712.91
2018-08-12T07:50:44.561Z,98703.04
2018-08-12T07:53:13.014Z,98703.82
2018-08-12T07:55:41.773Z,98701.34
2018-08-12T07:58:10.116Z,98700.21
2018-08-12T08:00:38.723Z,98699.45
2018-08-12T08:03:07.439Z,98701.55
2018-08-12T08:05:35.998Z,98704.67
2018-08-12T08:08:07.139Z,98706.67
2018-08-12T08:10:35.713Z,98704.67
2018-08-12T08:13:04.167Z,98708.97
2018-08-12T08:15:32.669Z,98708.08
2018-08-12T08:18:01.160Z,98696.89
2018-08-12T08:20:29.750Z,98695.74
2018-08-12T08:22:58.183Z,98690.60
2018-08-12T08:25:26.759Z,98689.66
2018-08-12T08:27:55.866Z,98703.91
2018-08-12T08:30:25.172Z,98691.94
2018-08-12T08:32:53.748Z,98693.76
2018-08-12T08:35:22.546Z,98696.41
2018-08-12T08:37:51.022Z,98692.09
2018-08-12T08:40:20.048Z,98698.27
2018-08-12T08:42:48.685Z,98690.13
2018-08-12T08:45:19.546Z,98690.11
2018-08-12T08:47:49.310Z,98686.36
2018-08-12T08:50:19.420Z,98688.08
2018-08-12T08:52:47.991Z,98680.94
2018-08-12T08:55:16.987Z,98677.47
2018-08-12T08:57:46.571Z,98679.66
2018-08-12T09:00:18.228Z,98676.36
2018-08-12T09:02:48.267Z,98676.19
2018-08-12T09:05:17.982Z,98677.00
2018-08-12T09:07:46.576Z,98684.46
2018-08-12T09:10:18.189Z,98681.50
2018-08-12T09:12:46.720Z,98676.89
2018-08-12T09:15:17.737Z,98672.66
2018-08-12T09:17:46.789Z,98667.88
2018-08-12T09:20:17.122Z,98671.62
2018-08-12T09:22:45.697Z,98667.83
2018-08-12T09:25:14.521Z,98653.42
2018-08-12T09:27:43.109Z,98656.62
2018-08-12T09:30:18.653Z,98655.32
2018-08-12T09:32:47.872Z,98654.31
2018-08-12T09:35:16.322Z,98655.58
2018-08-12T09:37:44.745Z,98654.13
2018-08-12T09:40:14.573Z,98649.36
2018-08-12T09:42:44.077Z,98646.33
2018-08-12T09:45:14.886Z,98647.94
2018-08-12T09:47:43.340Z,98643.58
2018-08-12T09:50:14.242Z,98649.42
2018-08-12T09:52:43.018Z,98646.97
2018-08-12T09:55:12.506Z,98645.19
2018-08-12T09:57:40.978Z,98642.09
2018-08-12T10:00:17.021Z,98638.86
2018-08-12T10:02:45.549Z,98638.77
2018-08-12T10:05:14.069Z,98639.94
2018-08-12T10:07:42.957Z,98631.28
2018-08-12T10:10:11.649Z,98627.61
2018-08-12T10:12:40.413Z,98621.84
2018-08-12T10:15:08.996Z,98620.56
2018-08-12T10:17:38.669Z,98615.88
2018-08-12T10:20:08.014Z,98616.76
2018-08-12T10:22:37.097Z,98615.66
2018-08-12T10:25:07.090Z,98616.89
2018-08-12T10:27:35.685Z,98606.64
2018-08-12T10:30:05.449Z,98596.56
2018-08-12T10:32:33.933Z,98597.78
2018-08-12T10:35:02.405Z,98597.74
2018-08-12T10:37:30.930Z,98600.84
2018-08-12T10:39:59.442Z,98589.41
2018-08-12T10:42:27.931Z,98594.73
2018-08-12T10:44:57.253Z,98586.70
2018-08-12T10:47:25.757Z,98588.21
2018-08-12T10:49:54.170Z,98584.19
2018-08-12T10:52:22.754Z,98575.73
2018-08-12T10:54:51.298Z,98575.63
2018-08-12T11:00:05.903Z,98573.19
2018-08-12T11:02:34.529Z,98572.58
2018-08-12T11:05:03.218Z,98567.21
2018-08-12T11:07:32.019Z,98563.58
2018-08-12T11:10:00.498Z,98560.53
2018-08-12T11:12:29.105Z,98546.77
2018-08-12T11:14:57.556Z,98540.68
2018-08-12T11:17:26.155Z,98544.16
2018-08-12T11:19:55.268Z,98548.17
2018-08-12T11:22:23.840Z,98537.97
2018-08-12T11:24:52.278Z,98537.49
2018-08-12T11:27:21.078Z,98533.86
2018-08-12T11:29:49.573Z,98530.80
2018-08-12T11:32:18.233Z,98525.68
2018-08-12T11:34:46.747Z,98521.78
2018-08-12T11:37:15.237Z,98520.95
2018-08-12T11:39:43.654Z,98517.45
2018-08-12T11:42:12.234Z,98520.31
2018-08-12T11:44:40.757Z,98516.59
2018-08-12T11:47:09.165Z,98510.72
2018-08-12T11:49:37.625Z,98503.51
2018-08-12T11:52:06.485Z,98501.30
2018-08-12T11:54:35.039Z,98498.21
2018-08-12T11:57:03.732Z,98496.52
2018-08-12T11:59:32.228Z,98488.56
2018-08-12T12:02:00.797Z,98483.09
2018-08-12T12:04:29.342Z,98485.66
2018-08-12T12:06:57.761Z,98478.73
2018-08-12T12:09:26.217Z,98476.41
2018-08-12T12:11:54.641Z,98473.22
2018-08-12T12:14:23.114Z,98468.27
2018-08-12T12:16:51.657Z,98468.48
2018-08-12T12:19:20.826Z,98467.80
2018-08-12T12:21:49.323Z,98466.63
2018-08-12T12:24:18.094Z,98466.83
2018-08-12T12:26:46.590Z,98458.45
2018-08-12T12:29:15.210Z,98450.03
2018-08-12T12:31:43.629Z,98451.71
2018-08-12T12:34:12.169Z,98444.38
2018-08-12T12:36:40.653Z,98451.70
2018-08-12T12:39:10.609Z,98442.95
2018-08-12T12:41:39.061Z,98445.84
2018-08-12T12:44:07.781Z,98437.64
2018-08-12T12:46:36.386Z,98432.14
2018-08-12T12:49:04.974Z,98430.78
2018-08-12T12:51:33.437Z,98430.99
2018-08-12T12:54:02.128Z,98423.05
2018-08-12T12:56:30.659Z,98423.05
2018-08-12T12:58:59.133Z,98417.88
2018-08-12T13:01:27.633Z,98415.55
2018-08-12T13:03:56.121Z,98415.06
2018-08-12T13:06:24.537Z,98412.64
2018-08-12T13:08:53.085Z,98401.70
2018-08-12T13:11:21.885Z,98395.78
2018-08-12T13:13:50.946Z,98399.92
2018-08-12T13:16:19.814Z,98389.81
2018-08-12T13:18:48.307Z,98387.81
2018-08-12T13:21:17.117Z,98387.95
2018-08-12T13:23:45.741Z,98379.08
2018-08-12T13:26:14.242Z,98379.80
2018-08-12T13:28:42.737Z,98373.77
2018-08-12T13:31:11.258Z,98370.29
2018-08-12T13:33:39.701Z,98361.81
2018-08-12T13:36:08.169Z,98361.17
2018-08-12T13:38:36.698Z,98357.37
2018-08-12T13:41:05.505Z,98343.77
2018-08-12T13:43:34.002Z,98344.57
2018-08-12T13:46:02.441Z,98345.48
2018-08-12T13:48:30.926Z,98341.73
2018-08-12T13:50:59.379Z,98335.39
2018-08-12T13:53:27.837Z,98332.04
2018-08-12T13:55:56.317Z,98332.73
2018-08-12T13:58:24.785Z,98324.16
2018-08-12T14:00:53.317Z,98321.40
2018-08-12T14:03:21.937Z,98313.94
2018-08-12T14:05:50.390Z,98318.35
2018-08-12T14:08:19.329Z,98309.91
2018-08-12T14:10:48.010Z,98312.56
2018-08-12T14:13:16.566Z,98310.88
2018-08-12T14:15:45.054Z,98293.20
2018-08-12T14:18:13.509Z,98290.06
2018-08-12T14:20:41.990Z,98288.81
2018-08-12T14:23:10.529Z,98287.05
2018-08-12T14:25:39.085Z,98284.22
2018-08-12T14:28:07.660Z,98286.42
2018-08-12T14:30:36.185Z,98285.87
2018-08-12T14:33:04.974Z,98278.88
2018-08-12T14:35:33.491Z,98276.02
2018-08-12T14:38:01.897Z,98269.51
2018-08-12T14:40:30.373Z,98265.86
2018-08-12T14:42:58.844Z,98262.23
2018-08-12T14:45:27.318Z,98261.70
2018-08-12T14:47:55.742Z,98263.06
2018-08-12T14:50:24.282Z,98248.63
2018-08-12T14:52:52.766Z,98252.64
2018-08-12T14:55:21.629Z,98241.89
2018-08-12T14:57:50.100Z,98249.78
2018-08-12T15:00:20.107Z,98239.79
2018-08-12T15:02:49.890Z,98233.70
2018-08-12T15:05:18.981Z,98235.99
2018-08-12T15:07:47.413Z,98231.83
2018-08-12T15:10:15.929Z,98233.82
2018-08-12T15:12:44.739Z,98228.23
2018-08-12T15:15:14.428Z,98225.63
2018-08-12T15:17:44.059Z,98216.89
2018-08-12T15:20:13.378Z,98216.87
2018-08-12T15:22:42.297Z,98214.77
2018-08-12T15:25:17.542Z,98216.27
2018-08-12T15:27:46.094Z,98211.31
2018-08-12T15:30:14.652Z,98207.27
2018-08-12T15:32:43.291Z,98212.81
2018-08-12T15:35:11.785Z,98210.82
2018-08-12T15:37:40.277Z,98217.64
2018-08-12T15:40:12.377Z,98216.03
2018-08-12T15:42:41.290Z,98204.90
2018-08-12T15:45:11.995Z,98203.00
2018-08-12T15:47:41.013Z,98198.53
2018-08-12T15:50:10.188Z,98195.34
2018-08-12T15:52:39.105Z,98195.34
2018-08-12T15:55:08.185Z,98186.01
2018-08-12T15:57:36.881Z,98190.45
2018-08-12T16:00:09.301Z,98183.23
2018-08-12T16:02:37.766Z,98185.83
2018-08-12T16:05:06.229Z,98175.47
2018-08-12T16:07:34.681Z,98173.14
2018-08-12T16:10:03.320Z,98175.55
2018-08-12T16:12:31.781Z,98172.62
2018-08-12T16:15:00.302Z,98178.34
2018-08-12T16:17:28.741Z,98178.50
2018-08-12T16:19:57.301Z,98168.95
2018-08-12T16:22:25.922Z,98162.08
2018-08-12T16:24:54.274Z,98163.63
2018-08-12T16:27:23.025Z,98160.06
2018-08-12T16:29:51.506Z,98162.40
2018-08-12T16:32:20.789Z,98154.36
2018-08-12T16:34:49.225Z,98149.98
2018-08-12T16:37:18.057Z,98151.33
2018-08-12T16:39:46.530Z,98148.22
2018-08-12T16:42:15.001Z,98154.30
2018-08-12T16:44:43.530Z,98144.83
2018-08-12T16:47:12.025Z,98143.17
2018-08-12T16:49:40.591Z,98145.06
2018-08-12T16:52:09.033Z,98140.58
2018-08-12T16:54:37.767Z,98139.15
2018-08-12T16:57:06.486Z,98132.05
2018-08-12T16:59:35.095Z,98129.30
2018-08-12T17:02:03.666Z,98129.62
2018-08-12T17:04:32.243Z,98124.46
2018-08-12T17:07:00.738Z,98120.52
2018-08-12T17:09:29.189Z,98120.83
2018-08-12T17:11:57.781Z,98121.30
2018-08-12T17:14:26.349Z,98114.80
2018-08-12T17:16:54.948Z,98113.38
2018-08-12T17:19:23.505Z,98099.61
2018-08-12T17:21:51.931Z,98093.72
2018-08-12T17:24:20.824Z,98093.84
2018-08-12T17:26:49.286Z,98102.44
2018-08-12T17:29:18.049Z,98098.66
2018-08-12T17:31:46.582Z,98093.25
2018-08-12T17:34:14.985Z,98089.56
2018-08-12T17:36:43.572Z,98090.03
2018-08-12T17:39:12.411Z,98084.41
2018-08-12T17:41:40.886Z,98091.12
2018-08-12T17:44:09.569Z,98086.98
2018-08-12T17:46:38.098Z,98082.81
2018-08-12T17:49:06.598Z,98082.43
2018-08-12T17:51:35.036Z,98079.86
2018-08-12T17:54:03.600Z,98087.13
2018-08-12T17:56:32.149Z,98081.19
2018-08-12T17:59:00.610Z,98077.59
2018-08-12T18:01:29.331Z,98077.00
2018-08-12T18:03:57.794Z,98072.09
2018-08-12T18:06:26.449Z,98075.09
2018-08-12T18:08:55.003Z,98074.41
2018-08-12T18:11:23.613Z,98071.39
2018-08-12T18:13:52.202Z,98069.31
2018-08-12T18:16:20.746Z,98070.77
2018-08-12T18:18:49.346Z,98068.38
2018-08-12T18:21:18.534Z,98062.64
2018-08-12T18:23:47.110Z,98070.45
2018-08-12T18:26:15.562Z,98071.59
2018-08-12T18:28:44.138Z,98070.56
2018-08-12T18:31:12.594Z,98068.13
2018-08-12T18:33:41.250Z,98068.70
2018-08-12T18:36:09.699Z,98067.36
2018-08-12T18:38:38.234Z,98068.54
2018-08-12T18:41:06.749Z,98066.38
2018-08-12T18:43:35.257Z,98074.02
2018-08-12T18:46:03.902Z,98062.91
2018-08-12T18:48:32.382Z,98068.03
2018-08-12T18:51:00.949Z,98074.92
2018-08-12T18:53:29.484Z,98075.38
2018-08-12T18:55:58.050Z,98078.25
2018-08-12T18:58:26.512Z,98075.86
2018-08-12T19:00:55.137Z,98078.44
2018-08-12T19:03:23.689Z,98083.37
2018-08-12T19:05:52.192Z,98084.03
2018-08-12T19:08:20.987Z,98085.55
2018-08-12T19:10:49.469Z,98086.02
2018-08-12T19:13:18.345Z,98081.02
2018-08-12T19:15:46.874Z,98084.04
2018-08-12T19:18:15.290Z,98091.97
2018-08-12T19:20:43.793Z,98090.84
2018-08-12T19:23:12.359Z,98091.52
2018-08-12T19:25:40.920Z,98090.18
2018-08-12T19:28:09.441Z,98092.19
2018-08-12T19:30:38.218Z,98083.20
2018-08-12T19:33:06.755Z,98086.35
2018-08-12T19:35:35.374Z,98083.91
2018-08-12T19:38:03.837Z,98084.89
2018-08-12T19:40:32.577Z,98085.83
2018-08-12T19:43:00.987Z,98083.02
2018-08-12T19:45:30.574Z,98081.73
2018-08-12T19:47:59.145Z,98083.36
2018-08-12T19:50:27.745Z,98085.70
2018-08-12T19:52:56.166Z,98088.23
2018-08-12T19:55:25.020Z,98093.84
2018-08-12T19:57:53.437Z,98094.52
2018-08-12T20:00:21.945Z,98091.81
2018-08-12T20:02:50.602Z,98095.00
2018-08-12T20:05:19.657Z,98095.16
2018-08-12T20:07:48.335Z,98097.13
2018-08-12T20:10:16.787Z,98095.01
2018-08-12T20:12:45.433Z,98096.22
2018-08-12T20:17:39.741Z,98102.33
2018-08-12T20:20:10.569Z,98100.98
2018-08-12T20:22:38.994Z,98098.02
2018-08-12T20:25:07.761Z,98098.54
2018-08-12T20:27:36.273Z,98095.31
2018-08-12T20:30:05.710Z,98101.36
2018-08-12T20:32:34.278Z,98099.56
2018-08-12T20:35:02.704Z,98098.23
2018-08-12T20:37:31.237Z,98099.25
2018-08-12T20:39:59.673Z,98108.54
2018-08-12T20:42:28.312Z,98103.44
2018-08-12T20:44:56.705Z,98101.39
2018-08-12T20:47:25.129Z,98101.66
2018-08-12T20:49:53.605Z,98105.56
2018-08-12T20:52:22.222Z,98105.28
2018-08-12T20:54:50.694Z,98099.47
2018-08-12T20:57:19.492Z,98099.61
2018-08-12T20:59:47.906Z,98097.59
2018-08-12T21:02:16.441Z,98099.51
2018-08-12T21:04:44.934Z,98102.48
2018-08-12T21:07:13.425Z,98104.19
2018-08-12T21:09:41.813Z,98110.30
2018-08-12T21:12:10.458Z,98106.95
2018-08-12T21:14:38.760Z,98102.67
2018-08-12T21:17:07.364Z,98105.33
2018-08-12T21:19:35.813Z,98105.33
2018-08-12T21:22:05.042Z,98111.20
2018-08-12T21:24:33.598Z,98112.03
2018-08-12T21:27:02.066Z,98119.33
2018-08-12T21:29:30.580Z,98123.75
2018-08-12T21:31:59.038Z,98121.66
2018-08-12T21:34:27.417Z,98123.00
2018-08-12T21:36:55.885Z,98122.80
2018-08-12T21:39:24.293Z,98123.45
2018-08-12T21:41:52.837Z,98123.75
2018-08-12T21:44:21.517Z,98127.11
2018-08-12T21:46:49.998Z,98123.86
2018-08-12T21:49:18.646Z,98120.20
2018-08-12T21:51:47.074Z,98115.67
2018-08-12T21:54:15.509Z,98117.04
2018-08-12T21:56:44.093Z,98114.52
2018-08-12T21:59:12.675Z,98119.11
2018-08-12T22:01:41.089Z,98108.32
2018-08-12T22:04:09.655Z,98115.50
2018-08-12T22:06:38.157Z,98113.06
2018-08-12T22:09:08.946Z,98117.14
2018-08-12T22:11:37.370Z,98113.59
2018-08-12T22:14:06.006Z,98114.09
2018-08-12T22:16:34.513Z,98117.22
2018-08-12T22:19:02.985Z,98111.48
2018-08-12T22:21:31.449Z,98109.59
2018-08-12T22:23:59.957Z,98105.48
2018-08-12T22:26:28.415Z,98113.41
2018-08-12T22:28:56.854Z,98106.73
2018-08-12T22:31:25.345Z,98098.12
2018-08-12T22:33:53.872Z,98097.06
2018-08-12T22:36:22.565Z,98097.17
2018-08-12T22:38:51.018Z,98106.34
2018-08-12T22:41:19.762Z,98102.20
2018-08-12T22:43:48.278Z,98100.53
2018-08-12T22:46:16.859Z,98095.70
2018-08-12T22:48:45.336Z,98095.25
2018-08-12T22:51:13.859Z,98087.10
2018-08-12T22:53:42.637Z,98092.77
2018-08-12T22:56:11.086Z,98087.84
2018-08-12T22:58:39.581Z,98078.83
2018-08-12T23:01:09.130Z,98072.56
2018-08-12T23:03:37.809Z,98068.30
2018-08-12T23:06:06.417Z,98057.85
2018-08-12T23:08:34.990Z,98045.55
2018-08-12T23:11:03.557Z,98027.33
2018-08-12T23:13:32.139Z,98024.58
2018-08-12T23:16:16.005Z,98032.91
2018-08-12T23:18:44.669Z,98030.19
2018-08-12T23:21:14.293Z,98030.91
2018-08-12T23:23:44.843Z,98030.00
2018-08-12T23:26:14.685Z,98028.83
2018-08-12T23:28:43.221Z,98016.58
2018-08-12T23:31:11.656Z,98010.98
2018-08-12T23:33:40.113Z,98015.23
2018-08-12T23:36:09.105Z,98018.55
2018-08-12T23:38:38.106Z,98027.95
2018-08-12T23:41:07.601Z,98034.44
2018-08-12T23:43:36.089Z,98042.34
2018-08-12T23:46:04.642Z,98045.13
2018-08-12T23:48:33.213Z,98040.70
2018-08-12T23:51:02.537Z,98036.80
2018-08-12T23:53:31.345Z,98029.48
2018-08-12T23:55:59.892Z,98029.89
2018-08-12T23:58:28.448Z,98022.87
